sensor_id;sensor_type;location;lat;lon;timestamp;P1;durP1;ratioP1;P2;durP2;ratioP2
11588;SDS011;5850;51.360;12.362;2023-08-24T00:00:48;6.43;;;5.17;;
11588;SDS011;5850;51.360;12.362;2023-08-24T00:03:16;8.70;;;4.70;;
11588;SDS011;5850;51.360;12.362;2023-08-24T00:05:45;10.90;;;5.27;;
11588;SDS011;5850;51.360;12.362;2023-08-24T00:08:15;6.40;;;5.00;;
11588;SDS011;5850;51.360;12.362;2023-08-24T00:10:43;9.87;;;5.53;;
11588;SDS011;5850;51.360;12.362;2023-08-24T00:13:13;7.93;;;5.53;;
11588;SDS011;5850;51.360;12.362;2023-08-24T00:15:41;5.73;;;4.73;;
11588;SDS011;5850;51.360;12.362;2023-08-24T00:18:10;11.60;;;5.10;;
11588;SDS011;5850;51.360;12.362;2023-08-24T00:20:38;13.43;;;5.93;;
11588;SDS011;5850;51.360;12.362;2023-08-24T00:23:06;5.80;;;5.10;;
11588;SDS011;5850;51.360;12.362;2023-08-24T00:25:35;7.70;;;5.37;;
11588;SDS011;5850;51.360;12.362;2023-08-24T00:28:03;7.00;;;5.20;;
11588;SDS011;5850;51.360;12.362;2023-08-24T00:30:31;11.23;;;6.07;;
11588;SDS011;5850;51.360;12.362;2023-08-24T00:33:00;9.53;;;6.07;;
11588;SDS011;5850;51.360;12.362;2023-08-24T00:35:28;8.97;;;5.63;;
11588;SDS011;5850;51.360;12.362;2023-08-24T00:37:57;7.77;;;5.40;;
11588;SDS011;5850;51.360;12.362;2023-08-24T00:40:26;5.70;;;5.10;;
11588;SDS011;5850;51.360;12.362;2023-08-24T00:42:54;9.77;;;5.50;;
11588;SDS011;5850;51.360;12.362;2023-08-24T00:45:22;6.30;;;4.90;;
11588;SDS011;5850;51.360;12.362;2023-08-24T00:47:51;5.77;;;5.17;;
11588;SDS011;5850;51.360;12.362;2023-08-24T00:50:20;7.77;;;5.00;;
11588;SDS011;5850;51.360;12.362;2023-08-24T00:52:48;7.50;;;5.10;;
11588;SDS011;5850;51.360;12.362;2023-08-24T00:55:17;9.50;;;5.70;;
11588;SDS011;5850;51.360;12.362;2023-08-24T00:57:45;10.37;;;5.93;;
11588;SDS011;5850;51.360;12.362;2023-08-24T01:00:14;5.53;;;5.03;;
11588;SDS011;5850;51.360;12.362;2023-08-24T01:02:42;7.70;;;5.23;;
11588;SDS011;5850;51.360;12.362;2023-08-24T01:05:11;6.33;;;4.93;;
11588;SDS011;5850;51.360;12.362;2023-08-24T01:07:39;5.97;;;5.37;;
11588;SDS011;5850;51.360;12.362;2023-08-24T01:10:09;9.97;;;5.67;;
11588;SDS011;5850;51.360;12.362;2023-08-24T01:12:42;6.07;;;4.70;;
11588;SDS011;5850;51.360;12.362;2023-08-24T01:18:13;5.93;;;5.00;;
11588;SDS011;5850;51.360;12.362;2023-08-24T01:20:45;6.07;;;5.47;;
11588;SDS011;5850;51.360;12.362;2023-08-24T01:23:33;5.10;;;4.67;;
11588;SDS011;5850;51.360;12.362;2023-08-24T01:26:22;6.47;;;5.30;;
11588;SDS011;5850;51.360;12.362;2023-08-24T01:28:51;6.20;;;5.63;;
11588;SDS011;5850;51.360;12.362;2023-08-24T01:31:19;6.43;;;5.47;;
11588;SDS011;5850;51.360;12.362;2023-08-24T01:33:48;5.77;;;5.27;;
11588;SDS011;5850;51.360;12.362;2023-08-24T01:36:16;5.30;;;4.83;;
11588;SDS011;5850;51.360;12.362;2023-08-24T01:38:46;7.27;;;5.20;;
11588;SDS011;5850;51.360;12.362;2023-08-24T01:41:26;6.07;;;5.47;;
11588;SDS011;5850;51.360;12.362;2023-08-24T01:43:59;6.60;;;5.90;;
11588;SDS011;5850;51.360;12.362;2023-08-24T01:46:29;7.30;;;6.60;;
11588;SDS011;5850;51.360;12.362;2023-08-24T01:49:00;7.53;;;5.73;;
11588;SDS011;5850;51.360;12.362;2023-08-24T01:51:29;6.33;;;5.73;;
11588;SDS011;5850;51.360;12.362;2023-08-24T01:53:59;6.70;;;6.00;;
11588;SDS011;5850;51.360;12.362;2023-08-24T01:56:27;6.33;;;5.73;;
11588;SDS011;5850;51.360;12.362;2023-08-24T01:58:56;7.03;;;5.93;;
11588;SDS011;5850;51.360;12.362;2023-08-24T02:01:24;7.30;;;5.43;;
11588;SDS011;5850;51.360;12.362;2023-08-24T02:03:53;6.40;;;5.77;;
11588;SDS011;5850;51.360;12.362;2023-08-24T02:06:22;6.77;;;5.87;;
11588;SDS011;5850;51.360;12.362;2023-08-24T02:08:50;6.57;;;5.73;;
11588;SDS011;5850;51.360;12.362;2023-08-24T02:11:18;6.53;;;5.93;;
11588;SDS011;5850;51.360;12.362;2023-08-24T02:13:46;6.70;;;5.80;;
11588;SDS011;5850;51.360;12.362;2023-08-24T02:16:15;6.40;;;5.87;;
11588;SDS011;5850;51.360;12.362;2023-08-24T02:18:44;8.70;;;6.20;;
11588;SDS011;5850;51.360;12.362;2023-08-24T02:21:12;8.60;;;5.80;;
11588;SDS011;5850;51.360;12.362;2023-08-24T02:23:42;6.23;;;5.60;;
11588;SDS011;5850;51.360;12.362;2023-08-24T02:26:10;7.03;;;5.80;;
11588;SDS011;5850;51.360;12.362;2023-08-24T02:28:38;7.03;;;6.33;;
11588;SDS011;5850;51.360;12.362;2023-08-24T02:31:07;6.83;;;5.83;;
11588;SDS011;5850;51.360;12.362;2023-08-24T02:33:35;6.50;;;5.47;;
11588;SDS011;5850;51.360;12.362;2023-08-24T02:36:04;9.23;;;6.00;;
11588;SDS011;5850;51.360;12.362;2023-08-24T02:38:32;6.60;;;5.90;;
11588;SDS011;5850;51.360;12.362;2023-08-24T02:41:04;6.80;;;5.93;;
11588;SDS011;5850;51.360;12.362;2023-08-24T02:43:33;8.17;;;5.93;;
11588;SDS011;5850;51.360;12.362;2023-08-24T02:46:03;9.63;;;6.23;;
11588;SDS011;5850;51.360;12.362;2023-08-24T02:48:34;7.47;;;6.73;;
11588;SDS011;5850;51.360;12.362;2023-08-24T02:51:03;6.93;;;6.00;;
11588;SDS011;5850;51.360;12.362;2023-08-24T02:53:32;6.37;;;5.87;;
11588;SDS011;5850;51.360;12.362;2023-08-24T02:56:00;7.83;;;7.00;;
11588;SDS011;5850;51.360;12.362;2023-08-24T02:58:29;7.20;;;6.43;;
11588;SDS011;5850;51.360;12.362;2023-08-24T03:00:57;6.83;;;6.13;;
11588;SDS011;5850;51.360;12.362;2023-08-24T03:03:26;9.17;;;7.07;;
11588;SDS011;5850;51.360;12.362;2023-08-24T03:05:55;7.90;;;6.13;;
11588;SDS011;5850;51.360;12.362;2023-08-24T03:08:29;9.17;;;7.17;;
11588;SDS011;5850;51.360;12.362;2023-08-24T03:10:58;7.07;;;6.40;;
11588;SDS011;5850;51.360;12.362;2023-08-24T03:13:28;7.37;;;6.40;;
11588;SDS011;5850;51.360;12.362;2023-08-24T03:15:56;8.40;;;6.63;;
11588;SDS011;5850;51.360;12.362;2023-08-24T03:18:29;7.80;;;7.00;;
11588;SDS011;5850;51.360;12.362;2023-08-24T03:20:58;7.57;;;6.70;;
11588;SDS011;5850;51.360;12.362;2023-08-24T03:23:27;8.53;;;7.20;;
11588;SDS011;5850;51.360;12.362;2023-08-24T03:25:56;7.23;;;6.53;;
11588;SDS011;5850;51.360;12.362;2023-08-24T03:28:24;6.80;;;6.10;;
11588;SDS011;5850;51.360;12.362;2023-08-24T03:30:53;11.87;;;6.50;;
11588;SDS011;5850;51.360;12.362;2023-08-24T03:33:22;6.97;;;6.27;;
11588;SDS011;5850;51.360;12.362;2023-08-24T03:35:50;8.27;;;6.77;;
11588;SDS011;5850;51.360;12.362;2023-08-24T03:38:18;6.97;;;6.37;;
11588;SDS011;5850;51.360;12.362;2023-08-24T03:40:47;7.27;;;6.67;;
11588;SDS011;5850;51.360;12.362;2023-08-24T03:43:15;8.47;;;7.00;;
11588;SDS011;5850;51.360;12.362;2023-08-24T03:45:43;8.40;;;6.47;;
11588;SDS011;5850;51.360;12.362;2023-08-24T03:48:12;10.30;;;7.37;;
11588;SDS011;5850;51.360;12.362;2023-08-24T03:50:40;7.77;;;6.97;;
11588;SDS011;5850;51.360;12.362;2023-08-24T03:53:08;7.43;;;6.83;;
11588;SDS011;5850;51.360;12.362;2023-08-24T03:55:37;7.57;;;6.87;;
11588;SDS011;5850;51.360;12.362;2023-08-24T03:58:05;8.17;;;7.33;;
11588;SDS011;5850;51.360;12.362;2023-08-24T04:00:34;7.70;;;7.00;;
11588;SDS011;5850;51.360;12.362;2023-08-24T04:03:03;7.93;;;6.70;;
11588;SDS011;5850;51.360;12.362;2023-08-24T04:05:31;7.23;;;6.63;;
11588;SDS011;5850;51.360;12.362;2023-08-24T04:08:00;7.27;;;6.57;;
11588;SDS011;5850;51.360;12.362;2023-08-24T04:10:28;8.13;;;6.43;;
11588;SDS011;5850;51.360;12.362;2023-08-24T04:12:57;8.13;;;7.37;;
11588;SDS011;5850;51.360;12.362;2023-08-24T04:15:25;7.93;;;7.03;;
11588;SDS011;5850;51.360;12.362;2023-08-24T04:17:54;7.87;;;7.10;;
11588;SDS011;5850;51.360;12.362;2023-08-24T04:20:23;8.57;;;7.27;;
11588;SDS011;5850;51.360;12.362;2023-08-24T04:22:51;7.33;;;6.60;;
11588;SDS011;5850;51.360;12.362;2023-08-24T04:25:26;8.80;;;6.73;;
11588;SDS011;5850;51.360;12.362;2023-08-24T04:27:55;8.23;;;7.00;;
11588;SDS011;5850;51.360;12.362;2023-08-24T04:30:23;9.63;;;7.10;;
11588;SDS011;5850;51.360;12.362;2023-08-24T04:32:52;8.27;;;7.00;;
11588;SDS011;5850;51.360;12.362;2023-08-24T04:35:20;10.47;;;7.77;;
11588;SDS011;5850;51.360;12.362;2023-08-24T04:37:48;7.03;;;6.33;;
11588;SDS011;5850;51.360;12.362;2023-08-24T04:40:17;6.67;;;5.90;;
11588;SDS011;5850;51.360;12.362;2023-08-24T04:42:45;8.37;;;6.40;;
11588;SDS011;5850;51.360;12.362;2023-08-24T04:45:14;7.63;;;5.90;;
11588;SDS011;5850;51.360;12.362;2023-08-24T04:47:42;8.17;;;7.37;;
11588;SDS011;5850;51.360;12.362;2023-08-24T04:50:10;9.33;;;6.47;;
11588;SDS011;5850;51.360;12.362;2023-08-24T04:52:38;11.00;;;7.10;;
11588;SDS011;5850;51.360;12.362;2023-08-24T04:55:07;9.00;;;6.83;;
11588;SDS011;5850;51.360;12.362;2023-08-24T04:57:36;8.33;;;7.53;;
11588;SDS011;5850;51.360;12.362;2023-08-24T05:00:04;8.97;;;6.67;;
11588;SDS011;5850;51.360;12.362;2023-08-24T05:02:40;7.23;;;6.53;;
11588;SDS011;5850;51.360;12.362;2023-08-24T05:05:08;7.83;;;7.00;;
11588;SDS011;5850;51.360;12.362;2023-08-24T05:07:37;10.87;;;6.97;;
11588;SDS011;5850;51.360;12.362;2023-08-24T05:10:06;8.40;;;6.87;;
11588;SDS011;5850;51.360;12.362;2023-08-24T05:12:34;7.43;;;6.63;;
11588;SDS011;5850;51.360;12.362;2023-08-24T05:15:03;8.13;;;7.23;;
11588;SDS011;5850;51.360;12.362;2023-08-24T05:17:32;8.40;;;7.17;;
11588;SDS011;5850;51.360;12.362;2023-08-24T05:20:00;8.37;;;7.50;;
11588;SDS011;5850;51.360;12.362;2023-08-24T05:22:29;11.30;;;7.57;;
11588;SDS011;5850;51.360;12.362;2023-08-24T05:24:58;7.67;;;6.97;;
11588;SDS011;5850;51.360;12.362;2023-08-24T05:27:26;7.87;;;7.17;;
11588;SDS011;5850;51.360;12.362;2023-08-24T05:29:54;9.80;;;7.40;;
11588;SDS011;5850;51.360;12.362;2023-08-24T05:32:22;7.30;;;6.60;;
11588;SDS011;5850;51.360;12.362;2023-08-24T05:34:51;7.97;;;6.57;;
11588;SDS011;5850;51.360;12.362;2023-08-24T05:37:19;7.13;;;6.43;;
11588;SDS011;5850;51.360;12.362;2023-08-24T05:39:47;8.10;;;6.77;;
11588;SDS011;5850;51.360;12.362;2023-08-24T05:42:16;8.70;;;6.80;;
11588;SDS011;5850;51.360;12.362;2023-08-24T05:44:44;6.40;;;5.40;;
11588;SDS011;5850;51.360;12.362;2023-08-24T05:47:12;6.20;;;5.70;;
11588;SDS011;5850;51.360;12.362;2023-08-24T05:49:41;6.50;;;5.80;;
11588;SDS011;5850;51.360;12.362;2023-08-24T05:52:09;6.90;;;5.50;;
11588;SDS011;5850;51.360;12.362;2023-08-24T05:54:37;5.60;;;5.03;;
11588;SDS011;5850;51.360;12.362;2023-08-24T05:57:06;5.70;;;4.87;;
11588;SDS011;5850;51.360;12.362;2023-08-24T05:59:34;5.80;;;5.30;;
11588;SDS011;5850;51.360;12.362;2023-08-24T06:02:02;5.87;;;5.20;;
11588;SDS011;5850;51.360;12.362;2023-08-24T06:04:31;5.27;;;4.60;;
11588;SDS011;5850;51.360;12.362;2023-08-24T06:06:59;7.00;;;4.60;;
11588;SDS011;5850;51.360;12.362;2023-08-24T06:09:28;5.50;;;5.00;;
11588;SDS011;5850;51.360;12.362;2023-08-24T06:11:57;5.10;;;4.60;;
11588;SDS011;5850;51.360;12.362;2023-08-24T06:14:26;5.00;;;4.20;;
11588;SDS011;5850;51.360;12.362;2023-08-24T06:16:54;6.13;;;4.10;;
11588;SDS011;5850;51.360;12.362;2023-08-24T06:19:22;4.40;;;4.00;;
11588;SDS011;5850;51.360;12.362;2023-08-24T06:21:50;4.77;;;4.37;;
11588;SDS011;5850;51.360;12.362;2023-08-24T06:24:19;4.60;;;4.17;;
11588;SDS011;5850;51.360;12.362;2023-08-24T06:26:47;7.73;;;4.50;;
11588;SDS011;5850;51.360;12.362;2023-08-24T06:29:15;4.83;;;4.37;;
11588;SDS011;5850;51.360;12.362;2023-08-24T06:31:43;5.17;;;4.30;;
11588;SDS011;5850;51.360;12.362;2023-08-24T06:34:12;3.77;;;3.47;;
11588;SDS011;5850;51.360;12.362;2023-08-24T06:36:40;5.20;;;4.30;;
11588;SDS011;5850;51.360;12.362;2023-08-24T06:39:08;4.70;;;3.60;;
11588;SDS011;5850;51.360;12.362;2023-08-24T06:41:37;6.43;;;4.60;;
11588;SDS011;5850;51.360;12.362;2023-08-24T06:44:05;6.50;;;4.43;;
11588;SDS011;5850;51.360;12.362;2023-08-24T06:46:33;6.27;;;4.93;;
11588;SDS011;5850;51.360;12.362;2023-08-24T06:49:02;7.07;;;4.83;;
11588;SDS011;5850;51.360;12.362;2023-08-24T06:51:30;10.73;;;5.00;;
11588;SDS011;5850;51.360;12.362;2023-08-24T06:53:58;4.27;;;3.87;;
11588;SDS011;5850;51.360;12.362;2023-08-24T06:56:27;4.80;;;3.50;;
11588;SDS011;5850;51.360;12.362;2023-08-24T06:58:55;4.60;;;3.47;;
11588;SDS011;5850;51.360;12.362;2023-08-24T07:01:23;4.60;;;3.97;;
11588;SDS011;5850;51.360;12.362;2023-08-24T07:03:52;4.77;;;3.70;;
11588;SDS011;5850;51.360;12.362;2023-08-24T07:06:20;4.30;;;3.90;;
11588;SDS011;5850;51.360;12.362;2023-08-24T07:08:48;3.63;;;3.33;;
11588;SDS011;5850;51.360;12.362;2023-08-24T07:11:17;4.83;;;3.57;;
11588;SDS011;5850;51.360;12.362;2023-08-24T07:13:46;3.80;;;3.40;;
11588;SDS011;5850;51.360;12.362;2023-08-24T07:16:16;4.77;;;3.77;;
11588;SDS011;5850;51.360;12.362;2023-08-24T07:18:44;5.67;;;3.50;;
11588;SDS011;5850;51.360;12.362;2023-08-24T07:21:13;4.60;;;3.73;;
11588;SDS011;5850;51.360;12.362;2023-08-24T07:23:42;4.63;;;3.53;;
11588;SDS011;5850;51.360;12.362;2023-08-24T07:26:10;5.60;;;3.20;;
11588;SDS011;5850;51.360;12.362;2023-08-24T07:28:39;5.73;;;3.80;;
11588;SDS011;5850;51.360;12.362;2023-08-24T07:31:08;8.30;;;4.73;;
11588;SDS011;5850;51.360;12.362;2023-08-24T07:33:37;13.27;;;5.43;;
11588;SDS011;5850;51.360;12.362;2023-08-24T07:36:06;6.97;;;5.13;;
11588;SDS011;5850;51.360;12.362;2023-08-24T07:38:35;6.33;;;4.23;;
11588;SDS011;5850;51.360;12.362;2023-08-24T07:41:03;5.20;;;3.47;;
11588;SDS011;5850;51.360;12.362;2023-08-24T07:43:32;3.47;;;3.17;;
11588;SDS011;5850;51.360;12.362;2023-08-24T07:46:01;7.53;;;3.87;;
11588;SDS011;5850;51.360;12.362;2023-08-24T07:48:33;6.70;;;4.27;;
11588;SDS011;5850;51.360;12.362;2023-08-24T07:51:02;6.80;;;4.23;;
11588;SDS011;5850;51.360;12.362;2023-08-24T07:53:30;4.37;;;3.63;;
11588;SDS011;5850;51.360;12.362;2023-08-24T07:55:59;4.07;;;3.53;;
11588;SDS011;5850;51.360;12.362;2023-08-24T07:58:28;4.03;;;3.43;;
11588;SDS011;5850;51.360;12.362;2023-08-24T08:00:58;5.93;;;4.20;;
11588;SDS011;5850;51.360;12.362;2023-08-24T08:03:27;7.70;;;4.93;;
11588;SDS011;5850;51.360;12.362;2023-08-24T08:05:57;6.33;;;4.70;;
11588;SDS011;5850;51.360;12.362;2023-08-24T08:08:25;4.27;;;3.87;;
11588;SDS011;5850;51.360;12.362;2023-08-24T08:10:57;3.97;;;3.57;;
11588;SDS011;5850;51.360;12.362;2023-08-24T08:13:27;4.53;;;3.30;;
11588;SDS011;5850;51.360;12.362;2023-08-24T08:16:04;5.60;;;2.97;;
11588;SDS011;5850;51.360;12.362;2023-08-24T08:18:34;3.20;;;2.90;;
11588;SDS011;5850;51.360;12.362;2023-08-24T08:21:10;9.67;;;3.67;;
11588;SDS011;5850;51.360;12.362;2023-08-24T08:23:47;6.03;;;3.37;;
11588;SDS011;5850;51.360;12.362;2023-08-24T08:26:16;4.20;;;2.83;;
11588;SDS011;5850;51.360;12.362;2023-08-24T08:28:44;3.93;;;2.80;;
11588;SDS011;5850;51.360;12.362;2023-08-24T08:31:13;2.90;;;2.70;;
11588;SDS011;5850;51.360;12.362;2023-08-24T08:33:41;3.87;;;2.40;;
11588;SDS011;5850;51.360;12.362;2023-08-24T08:36:09;3.37;;;2.63;;
11588;SDS011;5850;51.360;12.362;2023-08-24T08:38:37;2.90;;;2.70;;
11588;SDS011;5850;51.360;12.362;2023-08-24T08:41:05;2.33;;;2.13;;
11588;SDS011;5850;51.360;12.362;2023-08-24T08:43:33;2.53;;;2.30;;
11588;SDS011;5850;51.360;12.362;2023-08-24T08:46:01;2.95;;;2.65;;
11588;SDS011;5850;51.360;12.362;2023-08-24T08:48:33;2.77;;;2.40;;
11588;SDS011;5850;51.360;12.362;2023-08-24T08:51:02;3.30;;;2.50;;
11588;SDS011;5850;51.360;12.362;2023-08-24T08:53:31;2.60;;;2.40;;
11588;SDS011;5850;51.360;12.362;2023-08-24T08:56:00;2.83;;;2.23;;
11588;SDS011;5850;51.360;12.362;2023-08-24T08:58:33;3.33;;;2.40;;
11588;SDS011;5850;51.360;12.362;2023-08-24T09:01:03;5.57;;;3.22;;
11588;SDS011;5850;51.360;12.362;2023-08-24T09:06:07;3.83;;;2.90;;
11588;SDS011;5850;51.360;12.362;2023-08-24T09:08:36;3.80;;;3.07;;
11588;SDS011;5850;51.360;12.362;2023-08-24T09:11:05;3.27;;;2.50;;
11588;SDS011;5850;51.360;12.362;2023-08-24T09:13:34;8.33;;;3.00;;
11588;SDS011;5850;51.360;12.362;2023-08-24T09:16:03;3.30;;;2.97;;
11588;SDS011;5850;51.360;12.362;2023-08-24T09:18:37;3.20;;;2.90;;
11588;SDS011;5850;51.360;12.362;2023-08-24T09:21:10;3.90;;;3.07;;
11588;SDS011;5850;51.360;12.362;2023-08-24T09:23:43;2.80;;;2.57;;
11588;SDS011;5850;51.360;12.362;2023-08-24T09:26:29;3.80;;;3.00;;
11588;SDS011;5850;51.360;12.362;2023-08-24T09:29:12;3.27;;;2.43;;
11588;SDS011;5850;51.360;12.362;2023-08-24T09:31:42;2.80;;;2.60;;
11588;SDS011;5850;51.360;12.362;2023-08-24T09:34:11;3.17;;;2.87;;
11588;SDS011;5850;51.360;12.362;2023-08-24T09:36:39;3.23;;;2.93;;
11588;SDS011;5850;51.360;12.362;2023-08-24T09:39:07;2.60;;;2.40;;
11588;SDS011;5850;51.360;12.362;2023-08-24T09:41:42;2.90;;;2.70;;
11588;SDS011;5850;51.360;12.362;2023-08-24T09:44:12;3.67;;;2.77;;
11588;SDS011;5850;51.360;12.362;2023-08-24T09:46:56;4.10;;;2.70;;
11588;SDS011;5850;51.360;12.362;2023-08-24T09:49:23;2.70;;;2.47;;
11588;SDS011;5850;51.360;12.362;2023-08-24T09:51:52;3.93;;;2.60;;
11588;SDS011;5850;51.360;12.362;2023-08-24T09:54:26;3.20;;;2.70;;
11588;SDS011;5850;51.360;12.362;2023-08-24T09:56:55;3.00;;;2.70;;
11588;SDS011;5850;51.360;12.362;2023-08-24T09:59:25;3.30;;;2.77;;
11588;SDS011;5850;51.360;12.362;2023-08-24T10:01:54;2.80;;;2.60;;
11588;SDS011;5850;51.360;12.362;2023-08-24T10:04:24;2.57;;;2.37;;
11588;SDS011;5850;51.360;12.362;2023-08-24T10:06:57;9.77;;;3.27;;
11588;SDS011;5850;51.360;12.362;2023-08-24T10:09:49;3.47;;;2.87;;
11588;SDS011;5850;51.360;12.362;2023-08-24T10:12:31;4.67;;;3.13;;
11588;SDS011;5850;51.360;12.362;2023-08-24T10:15:11;3.47;;;2.73;;
11588;SDS011;5850;51.360;12.362;2023-08-24T10:17:39;5.90;;;3.10;;
11588;SDS011;5850;51.360;12.362;2023-08-24T10:20:07;3.80;;;2.97;;
11588;SDS011;5850;51.360;12.362;2023-08-24T10:22:37;4.47;;;3.00;;
11588;SDS011;5850;51.360;12.362;2023-08-24T10:25:08;3.63;;;2.80;;
11588;SDS011;5850;51.360;12.362;2023-08-24T10:27:37;2.90;;;2.60;;
11588;SDS011;5850;51.360;12.362;2023-08-24T10:30:10;3.60;;;2.93;;
11588;SDS011;5850;51.360;12.362;2023-08-24T10:32:39;3.50;;;3.07;;
11588;SDS011;5850;51.360;12.362;2023-08-24T10:35:09;3.63;;;3.23;;
11588;SDS011;5850;51.360;12.362;2023-08-24T10:37:48;3.30;;;3.00;;
11588;SDS011;5850;51.360;12.362;2023-08-24T10:43:04;4.70;;;3.20;;
11588;SDS011;5850;51.360;12.362;2023-08-24T10:48:28;4.83;;;3.23;;
11588;SDS011;5850;51.360;12.362;2023-08-24T10:54:29;9.37;;;3.50;;
11588;SDS011;5850;51.360;12.362;2023-08-24T10:56:58;5.57;;;3.40;;
11588;SDS011;5850;51.360;12.362;2023-08-24T10:59:34;4.37;;;3.30;;
11588;SDS011;5850;51.360;12.362;2023-08-24T11:02:19;8.60;;;3.33;;
11588;SDS011;5850;51.360;12.362;2023-08-24T11:05:03;4.17;;;2.80;;
11588;SDS011;5850;51.360;12.362;2023-08-24T11:07:51;6.57;;;3.60;;
11588;SDS011;5850;51.360;12.362;2023-08-24T11:13:11;3.87;;;3.27;;
11588;SDS011;5850;51.360;12.362;2023-08-24T11:15:46;4.17;;;3.57;;
11588;SDS011;5850;51.360;12.362;2023-08-24T11:18:27;7.67;;;3.30;;
11588;SDS011;5850;51.360;12.362;2023-08-24T11:20:57;5.40;;;3.30;;
11588;SDS011;5850;51.360;12.362;2023-08-24T11:23:29;3.50;;;3.20;;
11588;SDS011;5850;51.360;12.362;2023-08-24T11:25:58;5.60;;;2.90;;
11588;SDS011;5850;51.360;12.362;2023-08-24T11:28:27;6.67;;;3.40;;
11588;SDS011;5850;51.360;12.362;2023-08-24T11:30:58;4.00;;;3.00;;
11588;SDS011;5850;51.360;12.362;2023-08-24T11:33:31;2.80;;;2.60;;
11588;SDS011;5850;51.360;12.362;2023-08-24T11:36:02;3.40;;;3.10;;
11588;SDS011;5850;51.360;12.362;2023-08-24T11:38:37;4.33;;;3.30;;
11588;SDS011;5850;51.360;12.362;2023-08-24T11:41:16;6.53;;;4.30;;
11588;SDS011;5850;51.360;12.362;2023-08-24T11:43:48;4.20;;;3.80;;
11588;SDS011;5850;51.360;12.362;2023-08-24T11:46:18;4.63;;;3.92;;
11588;SDS011;5850;51.360;12.362;2023-08-24T11:48:46;4.40;;;3.67;;
11588;SDS011;5850;51.360;12.362;2023-08-24T11:51:14;6.80;;;3.47;;
11588;SDS011;5850;51.360;12.362;2023-08-24T11:53:55;3.83;;;3.22;;
11588;SDS011;5850;51.360;12.362;2023-08-24T11:56:24;4.68;;;3.30;;
11588;SDS011;5850;51.360;12.362;2023-08-24T11:58:52;5.03;;;3.10;;
11588;SDS011;5850;51.360;12.362;2023-08-24T12:01:20;3.20;;;2.90;;
11588;SDS011;5850;51.360;12.362;2023-08-24T12:03:48;3.30;;;3.00;;
11588;SDS011;5850;51.360;12.362;2023-08-24T12:06:17;2.83;;;2.63;;
11588;SDS011;5850;51.360;12.362;2023-08-24T12:08:46;4.43;;;3.13;;
11588;SDS011;5850;51.360;12.362;2023-08-24T12:11:20;3.42;;;2.72;;
11588;SDS011;5850;51.360;12.362;2023-08-24T12:13:52;2.90;;;2.70;;
11588;SDS011;5850;51.360;12.362;2023-08-24T12:16:22;3.42;;;3.13;;
11588;SDS011;5850;51.360;12.362;2023-08-24T12:18:54;3.22;;;2.95;;
11588;SDS011;5850;51.360;12.362;2023-08-24T12:21:25;3.55;;;3.25;;
11588;SDS011;5850;51.360;12.362;2023-08-24T12:26:28;3.55;;;3.25;;
11588;SDS011;5850;51.360;12.362;2023-08-24T12:28:59;9.15;;;3.95;;
11588;SDS011;5850;51.360;12.362;2023-08-24T12:31:35;7.68;;;4.93;;
11588;SDS011;5850;51.360;12.362;2023-08-24T12:34:04;4.80;;;4.40;;
11588;SDS011;5850;51.360;12.362;2023-08-24T12:36:35;4.00;;;3.65;;
11588;SDS011;5850;51.360;12.362;2023-08-24T12:39:05;5.10;;;3.58;;
11588;SDS011;5850;51.360;12.362;2023-08-24T12:41:36;4.30;;;3.47;;
11588;SDS011;5850;51.360;12.362;2023-08-24T12:44:04;10.20;;;3.60;;
11588;SDS011;5850;51.360;12.362;2023-08-24T12:46:36;4.88;;;4.10;;
11588;SDS011;5850;51.360;12.362;2023-08-24T12:49:05;4.60;;;4.10;;
11588;SDS011;5850;51.360;12.362;2023-08-24T12:51:33;4.00;;;3.70;;
11588;SDS011;5850;51.360;12.362;2023-08-24T12:54:01;4.88;;;3.72;;
11588;SDS011;5850;51.360;12.362;2023-08-24T12:56:29;3.70;;;3.40;;
11588;SDS011;5850;51.360;12.362;2023-08-24T12:58:57;4.10;;;3.70;;
11588;SDS011;5850;51.360;12.362;2023-08-24T13:01:25;4.40;;;3.20;;
11588;SDS011;5850;51.360;12.362;2023-08-24T13:03:54;4.93;;;3.50;;
11588;SDS011;5850;51.360;12.362;2023-08-24T13:06:22;5.37;;;3.30;;
11588;SDS011;5850;51.360;12.362;2023-08-24T13:08:53;4.93;;;3.07;;
11588;SDS011;5850;51.360;12.362;2023-08-24T13:11:21;9.45;;;4.10;;
11588;SDS011;5850;51.360;12.362;2023-08-24T13:13:50;5.03;;;4.00;;
11588;SDS011;5850;51.360;12.362;2023-08-24T13:16:18;4.87;;;3.40;;
11588;SDS011;5850;51.360;12.362;2023-08-24T13:18:46;4.40;;;4.00;;
11588;SDS011;5850;51.360;12.362;2023-08-24T13:21:14;5.50;;;3.97;;
11588;SDS011;5850;51.360;12.362;2023-08-24T13:23:44;5.97;;;4.30;;
11588;SDS011;5850;51.360;12.362;2023-08-24T13:26:18;6.77;;;3.93;;
11588;SDS011;5850;51.360;12.362;2023-08-24T13:28:48;7.60;;;4.03;;
11588;SDS011;5850;51.360;12.362;2023-08-24T13:31:16;5.67;;;4.30;;
11588;SDS011;5850;51.360;12.362;2023-08-24T13:33:45;12.17;;;5.13;;
11588;SDS011;5850;51.360;12.362;2023-08-24T13:36:15;7.80;;;3.93;;
11588;SDS011;5850;51.360;12.362;2023-08-24T13:38:43;6.60;;;3.80;;
11588;SDS011;5850;51.360;12.362;2023-08-24T13:41:12;3.77;;;3.47;;
11588;SDS011;5850;51.360;12.362;2023-08-24T13:43:40;5.93;;;3.50;;
11588;SDS011;5850;51.360;12.362;2023-08-24T13:46:08;5.30;;;3.67;;
11588;SDS011;5850;51.360;12.362;2023-08-24T13:48:36;7.80;;;4.00;;
11588;SDS011;5850;51.360;12.362;2023-08-24T13:51:05;7.37;;;3.83;;
11588;SDS011;5850;51.360;12.362;2023-08-24T13:53:34;5.10;;;3.97;;
11588;SDS011;5850;51.360;12.362;2023-08-24T13:56:02;5.67;;;3.90;;
11588;SDS011;5850;51.360;12.362;2023-08-24T13:58:30;8.47;;;3.90;;
11588;SDS011;5850;51.360;12.362;2023-08-24T14:00:59;7.60;;;4.33;;
11588;SDS011;5850;51.360;12.362;2023-08-24T14:03:29;6.87;;;3.50;;
11588;SDS011;5850;51.360;12.362;2023-08-24T14:05:57;5.30;;;4.03;;
11588;SDS011;5850;51.360;12.362;2023-08-24T14:08:26;7.23;;;3.77;;
11588;SDS011;5850;51.360;12.362;2023-08-24T14:10:54;4.50;;;3.90;;
11588;SDS011;5850;51.360;12.362;2023-08-24T14:13:23;5.33;;;4.03;;
11588;SDS011;5850;51.360;12.362;2023-08-24T14:15:51;4.20;;;3.80;;
11588;SDS011;5850;51.360;12.362;2023-08-24T14:18:19;9.70;;;4.23;;
11588;SDS011;5850;51.360;12.362;2023-08-24T14:20:48;5.40;;;3.70;;
11588;SDS011;5850;51.360;12.362;2023-08-24T14:23:16;4.83;;;3.87;;
11588;SDS011;5850;51.360;12.362;2023-08-24T14:25:45;7.63;;;4.50;;
11588;SDS011;5850;51.360;12.362;2023-08-24T14:30:49;5.53;;;3.90;;
11588;SDS011;5850;51.360;12.362;2023-08-24T14:33:18;6.80;;;3.90;;
11588;SDS011;5850;51.360;12.362;2023-08-24T14:35:53;5.67;;;3.50;;
11588;SDS011;5850;51.360;12.362;2023-08-24T14:38:21;3.33;;;3.03;;
11588;SDS011;5850;51.360;12.362;2023-08-24T14:40:52;6.67;;;4.97;;
11588;SDS011;5850;51.360;12.362;2023-08-24T14:43:20;5.70;;;3.70;;
11588;SDS011;5850;51.360;12.362;2023-08-24T14:45:49;3.80;;;3.00;;
11588;SDS011;5850;51.360;12.362;2023-08-24T14:48:17;5.40;;;3.53;;
11588;SDS011;5850;51.360;12.362;2023-08-24T14:50:45;3.70;;;3.40;;
11588;SDS011;5850;51.360;12.362;2023-08-24T14:53:13;3.63;;;3.17;;
11588;SDS011;5850;51.360;12.362;2023-08-24T14:55:41;5.05;;;3.55;;
11588;SDS011;5850;51.360;12.362;2023-08-24T14:58:10;4.10;;;3.28;;
11588;SDS011;5850;51.360;12.362;2023-08-24T15:00:37;3.92;;;3.63;;
11588;SDS011;5850;51.360;12.362;2023-08-24T15:03:05;5.28;;;3.30;;
11588;SDS011;5850;51.360;12.362;2023-08-24T15:05:41;5.65;;;3.17;;
11588;SDS011;5850;51.360;12.362;2023-08-24T15:08:22;6.88;;;3.70;;
11588;SDS011;5850;51.360;12.362;2023-08-24T15:10:50;3.30;;;3.00;;
11588;SDS011;5850;51.360;12.362;2023-08-24T15:13:21;9.18;;;3.50;;
11588;SDS011;5850;51.360;12.362;2023-08-24T15:15:49;6.78;;;3.42;;
11588;SDS011;5850;51.360;12.362;2023-08-24T15:18:20;3.95;;;3.00;;
11588;SDS011;5850;51.360;12.362;2023-08-24T15:20:49;3.58;;;3.17;;
11588;SDS011;5850;51.360;12.362;2023-08-24T15:23:21;5.53;;;3.15;;
11588;SDS011;5850;51.360;12.362;2023-08-24T15:25:58;3.28;;;2.97;;